createdAt,value
2023-01-12T00:00:30.637Z,59.66
2023-01-12T00:01:30.543Z,60.64
2023-01-12T00:02:30.550Z,63.18
2023-01-12T00:03:30.519Z,62.66
2023-01-12T00:04:30.610Z,62.50
2023-01-12T00:05:30.516Z,62.10
2023-01-12T00:06:30.495Z,61.05
2023-01-12T00:07:30.474Z,60.24
2023-01-12T00:08:30.468Z,61.09
2023-01-12T00:09:30.456Z,60.02
2023-01-12T00:10:30.474Z,60.84
2023-01-12T00:11:30.424Z,61.86
2023-01-12T00:12:30.426Z,62.69
2023-01-12T00:13:30.410Z,61.74
2023-01-12T00:14:30.394Z,62.83
2023-01-12T00:15:30.411Z,62.72
2023-01-12T00:16:30.389Z,60.21
2023-01-12T00:17:30.367Z,61.75
2023-01-12T00:18:30.344Z,61.88
2023-01-12T00:19:30.347Z,62.80
2023-01-12T00:20:30.357Z,65.78
2023-01-12T00:21:30.338Z,58.98
2023-01-12T00:22:30.310Z,61.79
2023-01-12T00:23:30.311Z,61.72
2023-01-12T00:24:30.273Z,62.36
2023-01-12T00:25:31.299Z,62.76
2023-01-12T00:26:30.264Z,64.26
2023-01-12T00:27:30.263Z,64.97
2023-01-12T00:28:30.240Z,62.99
2023-01-12T00:29:31.229Z,62.19
2023-01-12T00:30:30.226Z,62.05
2023-01-12T00:31:30.256Z,61.64
2023-01-12T00:32:30.217Z,63.15
2023-01-12T00:33:30.178Z,61.98
2023-01-12T00:34:30.175Z,60.89
2023-01-12T00:35:30.186Z,61.46
2023-01-12T00:36:30.163Z,62.01
2023-01-12T00:37:30.130Z,63.62
2023-01-12T00:38:30.135Z,62.09
2023-01-12T00:39:30.128Z,63.57
2023-01-12T00:40:30.139Z,63.02
2023-01-12T00:41:30.171Z,61.79
2023-01-12T00:42:30.093Z,63.15
2023-01-12T00:43:30.092Z,61.93
2023-01-12T00:44:30.079Z,62.34
2023-01-12T00:45:30.083Z,62.62
2023-01-12T00:46:30.111Z,62.57
2023-01-12T00:47:30.036Z,62.73
2023-01-12T00:48:30.079Z,62.02
2023-01-12T00:49:30.010Z,61.18
2023-01-12T00:50:30.053Z,62.29
2023-01-12T00:51:30.004Z,61.59
2023-01-12T00:52:31.409Z,61.13
2023-01-12T00:53:30.969Z,61.34
2023-01-12T00:54:29.970Z,60.97
2023-01-12T00:55:29.973Z,61.91
2023-01-12T00:56:29.934Z,63.23
2023-01-12T00:57:29.937Z,61.32
2023-01-12T00:58:29.930Z,62.19
2023-01-12T00:59:29.909Z,62.63
2023-01-12T01:00:29.936Z,63.79
2023-01-12T01:01:30.035Z,62.12
2023-01-12T01:02:29.992Z,61.56
2023-01-12T01:03:29.875Z,62.45
2023-01-12T01:04:29.868Z,62.24
2023-01-12T01:05:29.867Z,61.92
2023-01-12T01:06:29.838Z,62.95
2023-01-12T01:07:29.829Z,60.63
2023-01-12T01:08:29.820Z,59.72
2023-01-12T01:09:29.787Z,61.17
2023-01-12T01:10:29.806Z,65.72
2023-01-12T01:11:29.777Z,64.89
2023-01-12T01:12:29.769Z,63.13
2023-01-12T01:13:29.758Z,60.94
2023-01-12T01:14:29.751Z,61.48
2023-01-12T01:15:29.769Z,60.64
2023-01-12T01:16:29.744Z,62.15
2023-01-12T01:17:29.722Z,61.15
2023-01-12T01:18:29.709Z,62.59
2023-01-12T01:19:29.702Z,62.32
2023-01-12T01:20:29.711Z,60.25
2023-01-12T01:21:29.670Z,60.93
2023-01-12T01:22:29.658Z,62.08
2023-01-12T01:23:29.656Z,61.37
2023-01-12T01:24:29.659Z,61.56
2023-01-12T01:25:29.636Z,63.39
2023-01-12T01:26:29.626Z,61.60
2023-01-12T01:27:29.607Z,62.48
2023-01-12T01:28:29.611Z,62.42
2023-01-12T01:29:29.588Z,62.58
2023-01-12T01:30:29.617Z,61.83
2023-01-12T01:31:29.656Z,61.67
2023-01-12T01:32:29.562Z,60.65
2023-01-12T01:33:29.547Z,63.08
2023-01-12T01:34:29.535Z,60.79
2023-01-12T01:35:29.542Z,61.92
2023-01-12T01:36:29.513Z,60.70
2023-01-12T01:37:29.499Z,63.18
2023-01-12T01:38:29.492Z,63.31
2023-01-12T01:39:29.483Z,62.48
2023-01-12T01:40:29.496Z,62.36
2023-01-12T01:41:29.447Z,60.95
2023-01-12T01:42:29.469Z,62.35
2023-01-12T01:43:29.509Z,63.95
2023-01-12T01:44:29.448Z,62.55
2023-01-12T01:45:29.426Z,61.25
2023-01-12T01:46:29.478Z,62.13
2023-01-12T01:47:29.396Z,63.00
2023-01-12T01:48:29.385Z,63.63
2023-01-12T01:49:29.376Z,61.23
2023-01-12T01:50:29.376Z,61.86
2023-01-12T01:51:29.374Z,63.17
2023-01-12T01:52:29.341Z,62.21
2023-01-12T01:53:29.326Z,62.56
2023-01-12T01:54:29.309Z,62.26
2023-01-12T01:55:29.326Z,60.66
2023-01-12T01:56:29.294Z,61.34
2023-01-12T01:57:29.282Z,62.89
2023-01-12T01:58:29.271Z,61.16
2023-01-12T01:59:29.305Z,60.38
2023-01-12T02:00:29.268Z,60.99
2023-01-12T02:01:29.330Z,63.23
2023-01-12T02:02:29.243Z,63.83
2023-01-12T02:03:30.592Z,59.94
2023-01-12T02:04:29.202Z,62.87
2023-01-12T02:05:29.204Z,63.14
2023-01-12T02:06:29.179Z,61.85
2023-01-12T02:07:29.167Z,63.41
2023-01-12T02:08:29.143Z,62.54
2023-01-12T02:09:30.142Z,61.55
2023-01-12T02:10:29.152Z,62.14
2023-01-12T02:11:29.129Z,63.79
2023-01-12T02:12:29.108Z,63.32
2023-01-12T02:13:29.094Z,61.82
2023-01-12T02:14:29.088Z,61.32
2023-01-12T02:15:29.111Z,62.09
2023-01-12T02:16:29.163Z,63.36
2023-01-12T02:17:29.047Z,62.70
2023-01-12T02:18:29.044Z,62.15
2023-01-12T02:19:29.027Z,60.74
2023-01-12T02:20:29.055Z,62.12
2023-01-12T02:21:28.995Z,61.52
2023-01-12T02:22:28.996Z,61.55
2023-01-12T02:23:28.990Z,60.99
2023-01-12T02:24:28.977Z,63.30
2023-01-12T02:25:28.971Z,64.11
2023-01-12T02:26:28.995Z,63.99
2023-01-12T02:27:28.947Z,63.79
2023-01-12T02:28:28.932Z,63.16
2023-01-12T02:29:28.937Z,61.64
2023-01-12T02:30:28.933Z,63.35
2023-01-12T02:31:29.079Z,61.87
2023-01-12T02:32:28.894Z,63.40
2023-01-12T02:33:28.878Z,63.87
2023-01-12T02:34:28.879Z,63.52
2023-01-12T02:35:28.877Z,62.48
2023-01-12T02:36:28.832Z,63.52
2023-01-12T02:37:28.833Z,63.72
2023-01-12T02:38:28.823Z,63.69
2023-01-12T02:39:28.804Z,62.77
2023-01-12T02:40:28.821Z,62.29
2023-01-12T02:41:28.794Z,62.17
2023-01-12T02:42:28.780Z,61.59
2023-01-12T02:43:28.767Z,62.56
2023-01-12T02:44:28.755Z,62.28
2023-01-12T02:45:28.765Z,62.71
2023-01-12T02:46:28.774Z,63.83
2023-01-12T02:47:28.724Z,62.69
2023-01-12T02:48:28.713Z,61.67
2023-01-12T02:49:28.699Z,61.97
2023-01-12T02:50:28.707Z,63.38
2023-01-12T02:51:28.671Z,61.17
2023-01-12T02:52:28.657Z,63.34
2023-01-12T02:53:28.653Z,60.63
2023-01-12T02:54:28.654Z,61.72
2023-01-12T02:55:28.669Z,62.44
2023-01-12T02:56:28.612Z,63.07
2023-01-12T02:57:28.604Z,62.88
2023-01-12T02:58:28.594Z,61.85
2023-01-12T02:59:28.583Z,64.32
2023-01-12T03:00:28.596Z,63.21
2023-01-12T03:01:28.631Z,62.39
2023-01-12T03:02:28.547Z,62.05
2023-01-12T03:03:28.554Z,61.58
2023-01-12T03:04:28.519Z,63.86
2023-01-12T03:05:28.542Z,63.54
2023-01-12T03:06:28.504Z,61.62
2023-01-12T03:07:28.498Z,61.62
2023-01-12T03:08:28.476Z,61.66
2023-01-12T03:09:28.475Z,61.85
2023-01-12T03:10:28.467Z,62.42
2023-01-12T03:11:28.474Z,62.31
2023-01-12T03:12:28.442Z,63.62
2023-01-12T03:13:28.429Z,63.76
2023-01-12T03:14:28.420Z,63.50
2023-01-12T03:15:28.432Z,62.09
2023-01-12T03:16:28.416Z,61.57
2023-01-12T03:17:28.390Z,61.42
2023-01-12T03:18:28.383Z,62.78
2023-01-12T03:19:28.359Z,62.94
2023-01-12T03:20:28.343Z,63.96
2023-01-12T03:21:28.369Z,63.00
2023-01-12T03:22:28.329Z,63.47
2023-01-12T03:23:28.348Z,63.62
2023-01-12T03:24:28.300Z,62.49
2023-01-12T03:25:28.296Z,64.49
2023-01-12T03:26:28.304Z,65.41
2023-01-12T03:27:28.266Z,63.38
2023-01-12T03:28:28.258Z,62.58
2023-01-12T03:29:28.256Z,62.73
2023-01-12T03:30:28.235Z,64.50
2023-01-12T03:31:28.291Z,63.36
2023-01-12T03:32:28.209Z,63.19
2023-01-12T03:33:28.203Z,63.67
2023-01-12T03:34:28.195Z,63.12
2023-01-12T03:35:28.180Z,62.27
2023-01-12T03:36:28.186Z,63.40
2023-01-12T03:37:28.209Z,63.29
2023-01-12T03:38:28.146Z,62.50
2023-01-12T03:39:28.138Z,63.90
2023-01-12T03:40:28.117Z,63.57
2023-01-12T03:41:28.131Z,63.68
2023-01-12T03:42:28.109Z,65.30
2023-01-12T03:43:28.090Z,63.15
2023-01-12T03:44:28.064Z,63.46
2023-01-12T03:45:28.067Z,62.80
2023-01-12T03:46:29.083Z,63.44
2023-01-12T03:47:28.051Z,62.97
2023-01-12T03:48:28.025Z,64.82
2023-01-12T03:49:28.044Z,64.09
2023-01-12T03:50:28.015Z,63.43
2023-01-12T03:51:28.023Z,65.54
2023-01-12T03:52:27.999Z,64.92
2023-01-12T03:53:27.983Z,63.06
2023-01-12T03:54:27.965Z,64.04
2023-01-12T03:55:27.963Z,62.89
2023-01-12T03:56:27.983Z,64.27
2023-01-12T03:57:27.935Z,63.96
2023-01-12T03:58:27.929Z,64.31
2023-01-12T03:59:27.923Z,64.94
2023-01-12T04:00:27.919Z,64.47
2023-01-12T04:01:27.971Z,64.42
2023-01-12T04:02:27.888Z,64.95
2023-01-12T04:03:27.936Z,63.38
2023-01-12T04:04:27.916Z,64.09
2023-01-12T04:05:27.850Z,64.75
2023-01-12T04:06:27.863Z,65.11
2023-01-12T04:07:27.839Z,64.75
2023-01-12T04:08:27.814Z,65.34
2023-01-12T04:09:27.809Z,65.00
2023-01-12T04:10:27.799Z,64.72
2023-01-12T04:11:27.810Z,64.62
2023-01-12T04:12:27.767Z,65.69
2023-01-12T04:13:27.769Z,65.53
2023-01-12T04:14:27.753Z,64.33
2023-01-12T04:15:27.753Z,64.79
2023-01-12T04:16:27.814Z,63.87
2023-01-12T04:17:27.718Z,65.64
2023-01-12T04:18:27.708Z,64.30
2023-01-12T04:19:27.695Z,65.75
2023-01-12T04:20:27.679Z,65.63
2023-01-12T04:21:27.692Z,64.07
2023-01-12T04:22:27.661Z,64.24
2023-01-12T04:23:27.663Z,64.56
2023-01-12T04:24:27.634Z,65.07
2023-01-12T04:25:27.637Z,65.41
2023-01-12T04:26:27.646Z,65.88
2023-01-12T04:27:27.604Z,66.65
2023-01-12T04:28:27.589Z,66.31
2023-01-12T04:29:27.582Z,65.54
2023-01-12T04:30:27.576Z,66.65
2023-01-12T04:31:27.595Z,66.12
2023-01-12T04:32:27.544Z,66.08
2023-01-12T04:33:27.531Z,67.50
2023-01-12T04:34:27.522Z,65.91
2023-01-12T04:35:27.534Z,66.49
2023-01-12T04:36:27.514Z,66.48
2023-01-12T04:37:27.496Z,67.09
2023-01-12T04:38:27.481Z,66.36
2023-01-12T04:39:27.479Z,65.80
2023-01-12T04:40:27.469Z,66.54
2023-01-12T04:41:27.473Z,66.88
2023-01-12T04:42:27.443Z,66.70
2023-01-12T04:43:27.427Z,65.62
2023-01-12T04:44:27.414Z,65.56
2023-01-12T04:45:27.412Z,68.07
2023-01-12T04:46:27.417Z,66.08
2023-01-12T04:47:27.388Z,67.01
2023-01-12T04:48:27.374Z,66.26
2023-01-12T04:49:27.363Z,66.64
2023-01-12T04:50:27.348Z,67.55
2023-01-12T04:51:27.356Z,67.18
2023-01-12T04:52:27.335Z,67.23
2023-01-12T04:53:27.444Z,67.32
2023-01-12T04:54:27.308Z,67.21
2023-01-12T04:55:27.294Z,66.53
2023-01-12T04:56:27.321Z,66.31
2023-01-12T04:57:27.290Z,66.68
2023-01-12T04:58:27.264Z,67.92
2023-01-12T04:59:27.246Z,66.84
2023-01-12T05:00:27.243Z,66.78
2023-01-12T05:01:27.416Z,66.59
2023-01-12T05:02:27.221Z,66.08
2023-01-12T05:03:27.214Z,66.50
2023-01-12T05:04:27.265Z,66.50
2023-01-12T05:05:27.183Z,65.72
2023-01-12T05:06:27.185Z,67.40
2023-01-12T05:07:27.163Z,66.67
2023-01-12T05:08:27.186Z,66.42
2023-01-12T05:09:27.142Z,67.30
2023-01-12T05:10:27.147Z,66.93
2023-01-12T05:11:27.129Z,66.28
2023-01-12T05:12:27.110Z,66.54
2023-01-12T05:13:27.097Z,66.97
2023-01-12T05:14:27.097Z,67.32
2023-01-12T05:15:27.071Z,66.92
2023-01-12T05:16:27.096Z,66.20
2023-01-12T05:17:27.056Z,67.25
2023-01-12T05:18:27.057Z,66.66
2023-01-12T05:19:27.046Z,66.91
2023-01-12T05:20:27.032Z,66.92
2023-01-12T05:21:27.051Z,67.40
2023-01-12T05:22:27.004Z,67.82
2023-01-12T05:23:26.996Z,67.61
2023-01-12T05:24:27.088Z,68.14
2023-01-12T05:25:26.990Z,67.80
2023-01-12T05:26:26.976Z,67.62
2023-01-12T05:27:26.945Z,67.77
2023-01-12T05:28:26.940Z,67.15
2023-01-12T05:29:26.935Z,66.91
2023-01-12T05:30:26.967Z,67.05
2023-01-12T05:31:26.923Z,67.60
2023-01-12T05:32:26.893Z,68.05
2023-01-12T05:33:26.888Z,67.45
2023-01-12T05:34:26.869Z,67.34
2023-01-12T05:35:26.888Z,67.89
2023-01-12T05:36:26.873Z,68.26
2023-01-12T05:37:26.872Z,69.00
2023-01-12T05:38:26.822Z,67.65
2023-01-12T05:39:26.828Z,68.18
2023-01-12T05:40:26.811Z,68.29
2023-01-12T05:41:26.819Z,67.89
2023-01-12T05:42:26.776Z,67.96
2023-01-12T05:43:26.795Z,68.45
2023-01-12T05:44:26.766Z,68.41
2023-01-12T05:45:26.794Z,67.42
2023-01-12T05:46:26.810Z,67.81
2023-01-12T05:47:26.737Z,67.68
2023-01-12T05:48:26.725Z,68.60
2023-01-12T05:49:26.706Z,67.74
2023-01-12T05:50:27.691Z,67.66
2023-01-12T05:51:26.729Z,68.49
2023-01-12T05:52:26.690Z,67.89
2023-01-12T05:53:26.671Z,67.02
2023-01-12T05:54:26.655Z,68.40
2023-01-12T05:55:26.655Z,67.29
2023-01-12T05:56:26.758Z,66.96
2023-01-12T05:57:26.631Z,66.72
2023-01-12T05:58:26.615Z,67.34
2023-01-12T05:59:26.607Z,67.68
2023-01-12T06:00:26.605Z,67.48
2023-01-12T06:01:26.705Z,66.74
2023-01-12T06:02:26.633Z,67.21
2023-01-12T06:03:27.902Z,66.83
2023-01-12T06:04:27.623Z,68.01
2023-01-12T06:05:26.549Z,67.77
2023-01-12T06:06:26.548Z,66.56
2023-01-12T06:07:26.519Z,67.80
2023-01-12T06:08:26.509Z,67.54
2023-01-12T06:09:26.507Z,67.76
2023-01-12T06:10:26.488Z,67.74
2023-01-12T06:11:26.505Z,67.27
2023-01-12T06:12:26.467Z,67.76
2023-01-12T06:13:26.463Z,68.01
2023-01-12T06:14:26.447Z,67.53
2023-01-12T06:15:26.447Z,67.87
2023-01-12T06:16:26.427Z,68.98
2023-01-12T06:17:26.441Z,68.76
2023-01-12T06:18:26.388Z,68.14
2023-01-12T06:19:26.408Z,68.44
2023-01-12T06:20:26.378Z,68.28
2023-01-12T06:21:26.367Z,68.68
2023-01-12T06:22:26.378Z,67.88
2023-01-12T06:23:35.302Z,67.53
2023-01-12T06:24:27.345Z,67.56
2023-01-12T06:25:58.229Z,67.78
2023-01-12T06:26:26.313Z,67.67
2023-01-12T06:27:26.329Z,68.56
2023-01-12T06:28:26.292Z,67.06
2023-01-12T06:29:26.278Z,68.21
2023-01-12T06:30:26.272Z,68.08
2023-01-12T06:31:26.301Z,68.40
2023-01-12T06:32:26.272Z,66.95
2023-01-12T06:33:26.242Z,67.75
2023-01-12T06:34:26.222Z,67.87
2023-01-12T06:35:26.220Z,67.97
2023-01-12T06:36:26.204Z,68.27
2023-01-12T06:37:26.207Z,68.51
2023-01-12T06:38:26.174Z,67.12
2023-01-12T06:39:26.167Z,68.26
2023-01-12T06:40:26.157Z,68.06
2023-01-12T06:41:26.139Z,67.61
2023-01-12T06:42:26.152Z,66.99
2023-01-12T06:43:26.123Z,66.87
2023-01-12T06:44:26.184Z,67.73
2023-01-12T06:45:27.105Z,67.91
2023-01-12T06:46:26.172Z,68.21
2023-01-12T06:47:26.103Z,68.18
2023-01-12T06:48:26.099Z,68.36
2023-01-12T06:49:26.062Z,68.30
2023-01-12T06:50:26.044Z,69.09
2023-01-12T06:51:26.066Z,67.92
2023-01-12T06:52:26.097Z,66.22
2023-01-12T06:53:26.018Z,68.01
2023-01-12T06:54:26.008Z,67.71
2023-01-12T06:55:25.997Z,66.14
2023-01-12T06:56:25.999Z,67.39
2023-01-12T06:57:25.991Z,68.77
2023-01-12T06:58:25.967Z,68.21
2023-01-12T06:59:25.952Z,68.18
2023-01-12T07:00:25.969Z,68.13
2023-01-12T07:01:25.997Z,67.73
2023-01-12T07:02:25.937Z,67.22
2023-01-12T07:03:25.916Z,68.85
2023-01-12T07:04:25.967Z,68.23
2023-01-12T07:05:25.880Z,67.75
2023-01-12T07:06:25.884Z,67.85
2023-01-12T07:07:25.889Z,67.39
2023-01-12T07:08:25.856Z,67.96
2023-01-12T07:09:25.855Z,67.08
2023-01-12T07:10:25.840Z,68.23
2023-01-12T07:11:25.833Z,67.92
2023-01-12T07:12:25.837Z,67.87
2023-01-12T07:13:25.801Z,66.84
2023-01-12T07:14:25.805Z,67.07
2023-01-12T07:15:25.785Z,68.17
2023-01-12T07:16:25.774Z,67.61
2023-01-12T07:17:25.777Z,67.99
2023-01-12T07:18:25.744Z,67.43
2023-01-12T07:19:25.747Z,67.19
2023-01-12T07:20:25.728Z,67.68
2023-01-12T07:21:25.712Z,67.56
2023-01-12T07:22:25.729Z,68.01
2023-01-12T07:23:25.702Z,68.79
2023-01-12T07:24:25.691Z,68.60
2023-01-12T07:25:25.669Z,66.94
2023-01-12T07:26:25.679Z,68.13
2023-01-12T07:27:25.684Z,67.32
2023-01-12T07:28:25.641Z,66.29
2023-01-12T07:29:25.624Z,67.24
2023-01-12T07:30:25.633Z,66.36
2023-01-12T07:31:25.667Z,66.35
2023-01-12T07:32:25.616Z,67.04
2023-01-12T07:33:25.587Z,67.35
2023-01-12T07:34:25.595Z,67.88
2023-01-12T07:35:25.572Z,67.31
2023-01-12T07:36:25.581Z,66.90
2023-01-12T07:37:25.568Z,68.22
2023-01-12T07:38:25.537Z,67.61
2023-01-12T07:39:25.523Z,68.04
2023-01-12T07:40:25.522Z,67.52
2023-01-12T07:41:25.522Z,67.50
2023-01-12T07:42:25.512Z,68.03
2023-01-12T07:43:25.496Z,67.78
2023-01-12T07:44:25.476Z,67.43
2023-01-12T07:45:25.470Z,68.64
2023-01-12T07:46:25.536Z,67.75
2023-01-12T07:47:25.464Z,67.39
2023-01-12T07:48:25.421Z,66.73
2023-01-12T07:49:25.415Z,68.04
2023-01-12T07:50:25.409Z,67.33
2023-01-12T07:51:25.392Z,66.07
2023-01-12T07:52:25.404Z,66.35
2023-01-12T07:53:25.362Z,66.73
2023-01-12T07:54:25.362Z,65.68
2023-01-12T07:55:25.338Z,65.68
2023-01-12T07:56:25.339Z,66.66
2023-01-12T07:57:25.361Z,67.75
2023-01-12T07:58:25.328Z,67.77
2023-01-12T07:59:25.300Z,67.23
2023-01-12T08:00:25.328Z,68.14
2023-01-12T08:01:25.414Z,67.42
2023-01-12T08:02:25.293Z,67.91
2023-01-12T08:03:25.265Z,67.62
2023-01-12T08:04:25.285Z,67.85
2023-01-12T08:05:25.288Z,67.53
2023-01-12T08:06:25.242Z,67.93
2023-01-12T08:07:25.248Z,66.60
2023-01-12T08:08:25.239Z,66.02
2023-01-12T08:09:25.200Z,66.66
2023-01-12T08:10:25.185Z,66.63
2023-01-12T08:11:25.172Z,66.61
2023-01-12T08:12:25.232Z,66.93
2023-01-12T08:13:25.150Z,67.85
2023-01-12T08:14:25.135Z,67.16
2023-01-12T08:15:25.163Z,67.75
2023-01-12T08:16:25.179Z,66.81
2023-01-12T08:17:25.183Z,66.62
2023-01-12T08:18:25.090Z,67.35
2023-01-12T08:19:25.080Z,68.13
2023-01-12T08:20:25.071Z,67.41
2023-01-12T08:21:25.065Z,67.95
2023-01-12T08:22:25.068Z,66.73
2023-01-12T08:23:25.038Z,66.90
2023-01-12T08:24:25.027Z,65.81
2023-01-12T08:25:25.001Z,67.84
2023-01-12T08:26:25.008Z,67.85
2023-01-12T08:27:25.023Z,68.67
2023-01-12T08:28:24.982Z,67.89
2023-01-12T08:29:24.971Z,67.97
2023-01-12T08:30:24.954Z,68.22
2023-01-12T08:31:25.066Z,67.91
2023-01-12T08:32:24.942Z,67.86
2023-01-12T08:33:24.931Z,67.65
2023-01-12T08:34:24.912Z,66.53
2023-01-12T08:35:24.901Z,67.95
2023-01-12T08:36:24.924Z,67.89
2023-01-12T08:37:24.879Z,67.75
2023-01-12T08:38:24.868Z,67.84
2023-01-12T08:39:24.869Z,67.41
2023-01-12T08:40:24.842Z,68.23
2023-01-12T08:41:24.845Z,68.12
2023-01-12T08:42:26.385Z,67.82
2023-01-12T08:43:24.808Z,67.33
2023-01-12T08:44:24.804Z,68.39
2023-01-12T08:45:24.792Z,67.68
2023-01-12T08:46:24.960Z,68.29
2023-01-12T08:47:24.766Z,67.34
2023-01-12T08:48:24.764Z,67.52
2023-01-12T08:49:24.751Z,66.97
2023-01-12T08:50:24.767Z,67.65
2023-01-12T08:51:24.746Z,67.97
2023-01-12T08:52:24.745Z,67.70
2023-01-12T08:53:24.764Z,67.66
2023-01-12T08:54:24.698Z,67.32
2023-01-12T08:55:24.685Z,67.66
2023-01-12T08:56:24.690Z,67.98
2023-01-12T08:57:24.662Z,67.76
2023-01-12T08:58:24.653Z,67.61
2023-01-12T08:59:24.637Z,67.31
2023-01-12T09:00:24.634Z,66.79
2023-01-12T09:01:24.700Z,67.46
2023-01-12T09:02:24.640Z,66.73
2023-01-12T09:03:24.609Z,67.96
2023-01-12T09:04:24.594Z,67.26
2023-01-12T09:05:24.581Z,65.91
2023-01-12T09:06:24.590Z,66.32
2023-01-12T09:07:24.563Z,67.39
2023-01-12T09:08:24.542Z,66.60
2023-01-12T09:09:24.539Z,66.54
2023-01-12T09:10:24.546Z,66.23
2023-01-12T09:11:24.531Z,66.68
2023-01-12T09:12:24.633Z,66.95
2023-01-12T09:13:25.500Z,67.69
2023-01-12T09:14:24.497Z,68.18
2023-01-12T09:15:24.485Z,67.66
2023-01-12T09:16:24.502Z,68.19
2023-01-12T09:17:24.479Z,67.92
2023-01-12T09:18:24.453Z,68.01
2023-01-12T09:19:24.430Z,68.59
2023-01-12T09:20:24.434Z,66.39
2023-01-12T09:21:24.441Z,67.04
2023-01-12T09:22:24.415Z,67.54
2023-01-12T09:23:24.413Z,67.53
2023-01-12T09:24:24.385Z,67.53
2023-01-12T09:25:24.384Z,66.74
2023-01-12T09:26:24.401Z,68.10
2023-01-12T09:27:24.373Z,66.79
2023-01-12T09:28:24.354Z,67.63
2023-01-12T09:29:24.357Z,67.76
2023-01-12T09:30:24.326Z,66.97
2023-01-12T09:31:24.412Z,67.63
2023-01-12T09:32:29.211Z,68.01
2023-01-12T09:33:26.294Z,67.52
2023-01-12T09:34:24.287Z,67.38
2023-01-12T09:35:24.280Z,66.78
2023-01-12T09:36:24.288Z,67.54
2023-01-12T09:37:24.269Z,66.45
2023-01-12T09:38:24.248Z,66.52
2023-01-12T09:39:28.458Z,67.47
2023-01-12T09:40:25.231Z,67.76
2023-01-12T09:41:24.224Z,67.01
2023-01-12T09:42:25.212Z,67.29
2023-01-12T09:43:24.202Z,67.50
2023-01-12T09:44:24.200Z,66.73
2023-01-12T09:45:24.176Z,65.38
2023-01-12T09:46:24.182Z,66.49
2023-01-12T09:47:24.157Z,67.61
2023-01-12T09:48:24.149Z,67.13
2023-01-12T09:49:24.142Z,66.96
2023-01-12T09:50:24.118Z,67.26
2023-01-12T09:51:24.122Z,67.20
2023-01-12T09:52:24.102Z,67.12
2023-01-12T09:53:24.099Z,66.66
2023-01-12T09:54:24.086Z,65.80
2023-01-12T09:55:24.073Z,66.14
2023-01-12T09:56:24.078Z,67.29
2023-01-12T09:57:29.151Z,66.64
2023-01-12T09:58:26.035Z,67.23
2023-01-12T09:59:24.079Z,66.45
2023-01-12T10:00:24.094Z,67.30
2023-01-12T10:01:29.771Z,67.63
2023-01-12T10:02:26.086Z,66.69
2023-01-12T10:03:25.040Z,67.40
2023-01-12T10:04:23.982Z,67.20
2023-01-12T10:05:31.438Z,66.56
2023-01-12T10:06:25.995Z,66.83
2023-01-12T10:07:23.941Z,67.71
2023-01-12T10:08:23.943Z,66.74
2023-01-12T10:09:23.924Z,66.45
2023-01-12T10:10:23.914Z,66.28
2023-01-12T10:11:23.914Z,66.83
2023-01-12T10:12:23.912Z,67.89
2023-01-12T10:13:23.878Z,67.74
2023-01-12T10:14:23.881Z,67.13
2023-01-12T10:15:23.867Z,68.20
2023-01-12T10:16:23.907Z,67.77
2023-01-12T10:17:23.850Z,67.64
2023-01-12T10:18:23.836Z,67.89
2023-01-12T10:19:23.817Z,68.17
2023-01-12T10:20:23.826Z,68.78
2023-01-12T10:21:23.845Z,68.06
2023-01-12T10:22:23.797Z,67.55
2023-01-12T10:23:23.785Z,68.60
2023-01-12T10:24:23.795Z,66.81
2023-01-12T10:25:23.755Z,67.06
2023-01-12T10:26:23.794Z,66.42
2023-01-12T10:27:23.748Z,67.26
2023-01-12T10:28:23.753Z,66.89
2023-01-12T10:29:23.725Z,67.21
2023-01-12T10:30:23.712Z,68.11
2023-01-12T10:31:23.784Z,67.46
2023-01-12T10:32:24.663Z,67.50
2023-01-12T10:33:23.679Z,66.55
2023-01-12T10:34:23.692Z,66.87
2023-01-12T10:35:23.652Z,67.93
2023-01-12T10:36:23.651Z,67.02
2023-01-12T10:37:23.648Z,67.41
2023-01-12T10:38:23.639Z,67.35
2023-01-12T10:39:23.605Z,66.97
2023-01-12T10:40:23.607Z,65.82
2023-01-12T10:41:23.598Z,67.80
2023-01-12T10:42:23.603Z,67.80
2023-01-12T10:43:23.573Z,66.68
2023-01-12T10:44:23.604Z,66.04
2023-01-12T10:45:23.550Z,66.46
2023-01-12T10:46:23.543Z,67.10
2023-01-12T10:47:23.558Z,66.81
2023-01-12T10:48:23.531Z,67.49
2023-01-12T10:49:23.522Z,66.91
2023-01-12T10:50:23.509Z,67.06
2023-01-12T10:51:23.486Z,66.97
2023-01-12T10:52:23.497Z,66.67
2023-01-12T10:53:23.469Z,67.00
2023-01-12T10:54:23.459Z,66.30
2023-01-12T10:55:23.452Z,66.22
2023-01-12T10:56:23.443Z,66.23
2023-01-12T10:57:23.456Z,66.97
2023-01-12T10:58:23.415Z,67.64
2023-01-12T10:59:23.407Z,67.77
2023-01-12T11:00:26.030Z,67.38
2023-01-12T11:01:24.526Z,66.95
2023-01-12T11:02:23.512Z,67.73
2023-01-12T11:03:23.359Z,67.81
2023-01-12T11:04:23.383Z,67.74
2023-01-12T11:05:23.344Z,66.51
2023-01-12T11:06:23.340Z,67.25
2023-01-12T11:07:23.354Z,67.30
2023-01-12T11:08:23.343Z,67.06
2023-01-12T11:09:23.314Z,66.77
2023-01-12T11:10:23.298Z,66.60
2023-01-12T11:11:23.279Z,66.47
2023-01-12T11:12:23.295Z,67.39
2023-01-12T11:13:23.274Z,67.99
2023-01-12T11:14:24.359Z,67.69
2023-01-12T11:15:23.254Z,66.06
2023-01-12T11:16:23.288Z,66.55
2023-01-12T11:17:23.246Z,67.40
2023-01-12T11:18:23.217Z,67.60
2023-01-12T11:19:24.214Z,67.17
2023-01-12T11:20:23.201Z,67.02
2023-01-12T11:21:23.201Z,66.77
2023-01-12T11:22:23.204Z,67.54
2023-01-12T11:23:23.173Z,67.21
2023-01-12T11:24:23.178Z,67.79
2023-01-12T11:25:23.155Z,67.68
2023-01-12T11:26:23.148Z,66.82
2023-01-12T11:27:23.145Z,66.34
2023-01-12T11:28:23.121Z,67.18
2023-01-12T11:29:23.113Z,67.04
2023-01-12T11:30:23.109Z,67.12
2023-01-12T11:31:23.086Z,67.54
2023-01-12T11:32:23.099Z,66.87
2023-01-12T11:33:23.076Z,67.26
2023-01-12T11:34:23.056Z,67.58
2023-01-12T11:35:23.057Z,68.02
2023-01-12T11:36:23.056Z,66.81
2023-01-12T11:37:23.058Z,66.99
2023-01-12T11:38:23.028Z,66.81
2023-01-12T11:39:23.005Z,66.67
2023-01-12T11:40:23.011Z,66.61
2023-01-12T11:41:22.993Z,66.86
2023-01-12T11:42:22.991Z,67.71
2023-01-12T11:43:22.963Z,67.11
2023-01-12T11:44:22.959Z,67.15
2023-01-12T11:45:22.950Z,67.44
2023-01-12T11:46:22.980Z,67.28
2023-01-12T11:47:22.957Z,67.33
2023-01-12T11:48:22.938Z,66.67
2023-01-12T11:49:22.914Z,66.50
2023-01-12T11:50:22.895Z,67.06
2023-01-12T11:51:22.890Z,67.71
2023-01-12T11:52:22.901Z,67.00
2023-01-12T11:53:22.869Z,67.10
2023-01-12T11:54:22.870Z,67.83
2023-01-12T11:55:22.844Z,67.03
2023-01-12T11:56:22.837Z,68.27
2023-01-12T11:57:22.848Z,67.77
2023-01-12T11:58:22.820Z,67.56
2023-01-12T11:59:22.801Z,66.52
2023-01-12T12:00:22.801Z,67.08
2023-01-12T12:01:22.912Z,67.52
2023-01-12T12:02:22.834Z,67.64
2023-01-12T12:03:22.826Z,67.26
2023-01-12T12:04:22.770Z,67.93
2023-01-12T12:05:22.754Z,67.67
2023-01-12T12:06:22.755Z,67.66
2023-01-12T12:07:22.753Z,67.30
2023-01-12T12:08:22.715Z,68.28
2023-01-12T12:09:22.716Z,67.57
2023-01-12T12:10:22.701Z,66.59
2023-01-12T12:11:22.682Z,67.58
2023-01-12T12:12:22.700Z,68.35
2023-01-12T12:13:22.672Z,68.14
2023-01-12T12:14:22.668Z,67.23
2023-01-12T12:15:22.650Z,67.49
2023-01-12T12:16:22.647Z,67.56
2023-01-12T12:17:22.668Z,66.80
2023-01-12T12:18:22.631Z,67.11
2023-01-12T12:19:22.608Z,67.79
2023-01-12T12:20:22.597Z,68.07
2023-01-12T12:21:22.593Z,66.44
2023-01-12T12:22:22.597Z,66.76
2023-01-12T12:23:22.648Z,67.09
2023-01-12T12:24:22.559Z,67.56
2023-01-12T12:25:22.544Z,67.17
2023-01-12T12:26:22.525Z,67.52
2023-01-12T12:27:22.543Z,67.38
2023-01-12T12:28:22.518Z,67.33
2023-01-12T12:29:22.508Z,67.32
2023-01-12T12:30:22.495Z,66.30
2023-01-12T12:31:22.511Z,67.51
2023-01-12T12:32:22.523Z,67.91
2023-01-12T12:33:22.469Z,67.34
2023-01-12T12:34:22.448Z,67.75
2023-01-12T12:35:22.468Z,67.57
2023-01-12T12:36:22.439Z,67.22
2023-01-12T12:37:22.448Z,67.01
2023-01-12T12:38:22.409Z,68.18
2023-01-12T12:39:22.407Z,68.66
2023-01-12T12:40:22.388Z,68.18
2023-01-12T12:41:22.393Z,69.09
2023-01-12T12:42:22.393Z,68.52
2023-01-12T12:43:22.367Z,68.14
2023-01-12T12:44:22.355Z,67.59
2023-01-12T12:45:22.353Z,68.44
2023-01-12T12:46:22.369Z,68.08
2023-01-12T12:47:22.347Z,68.06
2023-01-12T12:48:22.317Z,68.38
2023-01-12T12:49:22.325Z,68.13
2023-01-12T12:50:22.300Z,67.07
2023-01-12T12:51:22.288Z,67.31
2023-01-12T12:52:22.301Z,67.67